createdAt,value
2022-08-31T00:02:42.455Z,7.18
2022-08-31T00:05:10.654Z,5.88
2022-08-31T00:07:38.015Z,5.22
2022-08-31T00:10:14.733Z,6.40
2022-08-31T00:12:46.827Z,4.80
2022-08-31T00:15:17.415Z,4.82
2022-08-31T00:17:45.132Z,6.03
2022-08-31T00:20:30.627Z,5.90
2022-08-31T00:22:59.531Z,9.57
2022-08-31T00:25:26.257Z,5.88
2022-08-31T00:27:52.991Z,5.25
2022-08-31T00:30:19.575Z,4.78
2022-08-31T00:32:46.113Z,5.28
2022-08-31T00:35:14.747Z,7.78
2022-08-31T00:37:41.259Z,6.22
2022-08-31T00:40:09.166Z,7.65
2022-08-31T00:42:35.724Z,10.05
2022-08-31T00:45:02.720Z,7.57
2022-08-31T00:47:29.181Z,6.20
2022-08-31T00:49:55.943Z,7.60
2022-08-31T00:52:35.537Z,5.75
2022-08-31T00:55:12.326Z,8.18
2022-08-31T00:57:43.100Z,11.70
2022-08-31T01:00:14.298Z,6.43
2022-08-31T01:02:41.365Z,6.05
2022-08-31T01:05:08.847Z,7.78
2022-08-31T01:07:35.919Z,7.15
2022-08-31T01:10:03.951Z,6.90
2022-08-31T01:12:30.720Z,6.63
2022-08-31T01:14:58.257Z,7.68
2022-08-31T01:17:24.696Z,12.52
2022-08-31T01:20:11.671Z,6.22
2022-08-31T01:22:38.117Z,7.38
2022-08-31T01:25:05.939Z,7.40
2022-08-31T01:27:35.874Z,10.30
2022-08-31T01:30:07.472Z,8.45
2022-08-31T01:32:33.928Z,7.65
2022-08-31T01:35:00.600Z,12.93
2022-08-31T01:37:29.474Z,9.93
2022-08-31T01:39:57.085Z,8.75
2022-08-31T01:42:23.549Z,10.32
2022-08-31T01:45:00.122Z,11.63
2022-08-31T01:47:26.765Z,11.85
2022-08-31T01:49:53.320Z,9.20
2022-08-31T01:52:27.556Z,11.50
2022-08-31T01:54:55.500Z,8.95
2022-08-31T01:57:33.434Z,11.20
2022-08-31T02:00:04.158Z,8.65
2022-08-31T02:02:30.872Z,11.05
2022-08-31T02:04:58.908Z,9.35
2022-08-31T02:07:25.572Z,11.52
2022-08-31T02:09:53.808Z,9.35
2022-08-31T02:12:20.281Z,15.85
2022-08-31T02:14:46.980Z,11.80
2022-08-31T02:17:13.470Z,10.15
2022-08-31T02:19:40.398Z,13.48
2022-08-31T02:22:07.677Z,10.75
2022-08-31T02:24:34.375Z,11.68
2022-08-31T02:27:01.179Z,9.27
2022-08-31T02:29:27.855Z,13.38
2022-08-31T02:31:54.343Z,14.07
2022-08-31T02:34:20.981Z,10.30
2022-08-31T02:36:47.472Z,12.15
2022-08-31T02:39:14.924Z,11.05
2022-08-31T02:41:41.878Z,9.98
2022-08-31T02:44:08.399Z,13.65
2022-08-31T02:46:35.401Z,11.15
2022-08-31T02:49:01.943Z,12.68
2022-08-31T02:51:28.652Z,12.10
2022-08-31T02:53:55.249Z,11.93
2022-08-31T02:56:23.021Z,11.20
2022-08-31T02:58:54.789Z,11.82
2022-08-31T03:01:23.430Z,11.77
2022-08-31T03:03:50.036Z,11.02
2022-08-31T03:06:17.687Z,11.40
2022-08-31T03:08:44.299Z,10.05
2022-08-31T03:11:11.384Z,9.43
2022-08-31T03:13:39.064Z,13.52
2022-08-31T03:16:07.640Z,12.15
2022-08-31T03:18:34.893Z,15.02
2022-08-31T03:21:02.366Z,12.20
2022-08-31T03:23:29.268Z,11.57
2022-08-31T03:25:55.796Z,16.23
2022-08-31T03:28:22.531Z,10.15
2022-08-31T03:30:49.171Z,12.82
2022-08-31T03:33:15.872Z,12.07
2022-08-31T03:35:44.153Z,10.40
2022-08-31T03:38:12.744Z,9.90
2022-08-31T03:40:41.373Z,11.82
2022-08-31T03:43:11.552Z,9.85
2022-08-31T03:45:42.411Z,11.70
2022-08-31T03:48:12.844Z,10.75
2022-08-31T03:50:41.348Z,11.02
2022-08-31T03:53:09.471Z,11.15
2022-08-31T03:55:38.775Z,13.18
2022-08-31T03:58:06.914Z,10.70
2022-08-31T04:00:34.115Z,13.32
2022-08-31T04:03:01.460Z,11.90
2022-08-31T04:05:30.468Z,10.07
2022-08-31T04:07:57.363Z,11.95
2022-08-31T04:10:24.246Z,9.68
2022-08-31T04:12:50.943Z,10.27
2022-08-31T04:15:18.448Z,11.50
2022-08-31T04:17:46.372Z,10.70
2022-08-31T04:20:13.570Z,9.18
2022-08-31T04:22:40.225Z,10.48
2022-08-31T04:25:10.263Z,10.63
2022-08-31T04:27:38.170Z,13.00
2022-08-31T04:30:07.646Z,10.10
2022-08-31T04:32:35.362Z,11.65
2022-08-31T04:35:02.807Z,12.70
2022-08-31T04:37:29.555Z,9.32
2022-08-31T04:39:56.990Z,10.15
2022-08-31T04:42:29.032Z,12.02
2022-08-31T04:44:55.933Z,11.30
2022-08-31T04:47:22.504Z,10.35
2022-08-31T04:49:49.144Z,13.02
2022-08-31T04:52:15.675Z,11.15
2022-08-31T04:54:42.301Z,9.02
2022-08-31T04:57:08.851Z,9.93
2022-08-31T04:59:35.603Z,11.48
2022-08-31T05:02:03.948Z,13.35
2022-08-31T05:04:31.852Z,9.80
2022-08-31T05:06:58.765Z,11.23
2022-08-31T05:09:25.503Z,10.98
2022-08-31T05:11:53.673Z,10.65
2022-08-31T05:14:21.987Z,11.13
2022-08-31T05:16:49.287Z,11.18
2022-08-31T05:19:16.317Z,12.98
2022-08-31T05:21:43.639Z,14.02
2022-08-31T05:24:16.795Z,15.27
2022-08-31T05:26:48.727Z,12.32
2022-08-31T05:29:19.352Z,11.93
2022-08-31T05:31:51.442Z,10.63
2022-08-31T05:34:20.792Z,9.95
2022-08-31T05:36:52.111Z,11.43
2022-08-31T05:39:19.598Z,11.10
2022-08-31T05:41:47.484Z,11.35
2022-08-31T05:44:15.735Z,10.55
2022-08-31T05:46:42.285Z,12.35
2022-08-31T05:49:10.865Z,9.35
2022-08-31T05:51:38.888Z,10.98
2022-08-31T05:54:07.612Z,9.75
2022-08-31T05:56:34.573Z,10.10
2022-08-31T05:59:01.249Z,11.77
2022-08-31T06:01:30.787Z,11.13
2022-08-31T06:03:58.340Z,13.77
2022-08-31T06:06:25.394Z,11.90
2022-08-31T06:08:52.493Z,10.98
2022-08-31T06:11:22.821Z,10.77
2022-08-31T06:13:52.563Z,10.07
2022-08-31T06:16:20.817Z,9.20
2022-08-31T06:18:50.556Z,9.75
2022-08-31T06:21:23.656Z,11.80
2022-08-31T06:23:52.231Z,14.30
2022-08-31T06:26:20.569Z,10.90
2022-08-31T06:28:50.704Z,11.00
2022-08-31T06:31:26.603Z,9.82
2022-08-31T06:33:55.841Z,9.52
2022-08-31T06:36:24.784Z,11.95
2022-08-31T06:38:51.612Z,10.35
2022-08-31T06:41:27.749Z,9.90
2022-08-31T06:43:54.815Z,11.20
2022-08-31T06:46:23.249Z,9.70
2022-08-31T06:48:53.094Z,9.35
2022-08-31T06:51:19.955Z,12.70
2022-08-31T06:53:46.757Z,12.85
2022-08-31T06:56:20.923Z,9.85
2022-08-31T06:58:53.699Z,10.88
2022-08-31T07:01:35.986Z,11.82
2022-08-31T07:04:07.111Z,12.68
2022-08-31T07:06:40.831Z,12.93
2022-08-31T07:09:09.767Z,14.88
2022-08-31T07:11:44.581Z,13.68
2022-08-31T07:16:39.822Z,12.05
2022-08-31T07:19:06.949Z,13.68
2022-08-31T07:21:43.447Z,15.07
2022-08-31T07:24:11.693Z,18.40
2022-08-31T07:26:47.418Z,12.48
2022-08-31T07:29:17.098Z,12.85
2022-08-31T07:31:47.524Z,13.90
2022-08-31T07:34:18.556Z,11.40
2022-08-31T07:37:06.828Z,10.85
2022-08-31T07:39:53.656Z,12.80
2022-08-31T07:42:28.678Z,16.70
2022-08-31T07:44:57.765Z,12.07
2022-08-31T07:47:27.076Z,13.07
2022-08-31T07:49:58.397Z,10.82
2022-08-31T07:52:28.294Z,14.13
2022-08-31T07:54:58.303Z,15.45
2022-08-31T07:57:25.886Z,12.73
2022-08-31T08:00:04.280Z,12.13
2022-08-31T08:02:38.154Z,11.60
2022-08-31T08:05:11.085Z,14.77
2022-08-31T08:07:40.381Z,15.30
2022-08-31T08:10:13.963Z,21.00
2022-08-31T08:12:47.076Z,12.48
2022-08-31T08:15:13.995Z,15.85
2022-08-31T08:17:41.404Z,17.20
2022-08-31T08:20:13.482Z,12.10
2022-08-31T08:22:54.252Z,11.35
2022-08-31T08:25:26.087Z,15.90
2022-08-31T08:27:54.545Z,12.77
2022-08-31T08:30:21.694Z,13.43
2022-08-31T08:32:48.732Z,11.38
2022-08-31T08:35:16.483Z,12.57
2022-08-31T08:37:57.821Z,11.88
2022-08-31T08:40:46.812Z,11.93
2022-08-31T08:43:16.875Z,11.20
2022-08-31T08:45:47.905Z,12.68
2022-08-31T08:48:17.485Z,12.30
2022-08-31T08:50:44.278Z,14.30
2022-08-31T08:53:13.437Z,12.63
2022-08-31T08:55:42.069Z,14.82
2022-08-31T08:58:13.572Z,9.30
2022-08-31T09:00:46.595Z,15.27
2022-08-31T09:03:44.210Z,11.30
2022-08-31T09:06:17.604Z,11.18
2022-08-31T09:08:46.822Z,12.88
2022-08-31T09:11:19.822Z,9.77
2022-08-31T09:14:19.187Z,12.25
2022-08-31T09:16:56.146Z,11.25
2022-08-31T09:19:22.806Z,12.73
2022-08-31T09:21:52.829Z,14.30
2022-08-31T09:24:22.798Z,14.95
2022-08-31T09:27:18.134Z,9.55
2022-08-31T09:29:53.957Z,11.65
2022-08-31T09:32:35.701Z,8.70
2022-08-31T09:35:04.428Z,11.32
2022-08-31T09:37:48.934Z,8.82
2022-08-31T09:40:23.679Z,11.77
2022-08-31T09:43:13.761Z,14.48
2022-08-31T09:46:02.487Z,7.68
2022-08-31T09:48:51.875Z,10.65
2022-08-31T09:51:35.540Z,15.02
2022-08-31T09:54:46.542Z,9.85
2022-08-31T09:57:13.839Z,8.68
2022-08-31T09:59:49.255Z,11.55
2022-08-31T10:02:27.785Z,9.80
2022-08-31T10:05:40.353Z,13.75
2022-08-31T10:08:56.983Z,9.90
2022-08-31T10:11:28.908Z,6.82
2022-08-31T10:14:20.297Z,7.63
2022-08-31T10:16:52.313Z,8.40
2022-08-31T10:19:30.297Z,8.20
2022-08-31T10:22:03.397Z,8.20
2022-08-31T10:24:52.419Z,7.88
2022-08-31T10:27:32.157Z,9.93
2022-08-31T10:30:23.319Z,12.23
2022-08-31T10:33:12.374Z,6.45
2022-08-31T10:35:55.123Z,10.48
2022-08-31T10:38:34.734Z,7.78
2022-08-31T10:41:10.535Z,8.23
2022-08-31T10:43:49.068Z,7.32
2022-08-31T10:46:16.566Z,7.55
2022-08-31T10:48:47.294Z,6.38
2022-08-31T10:51:20.401Z,8.57
2022-08-31T10:54:03.067Z,18.17
2022-08-31T10:56:41.493Z,11.02
2022-08-31T10:59:25.415Z,8.15
2022-08-31T11:02:27.345Z,10.38
2022-08-31T11:05:22.891Z,8.05
2022-08-31T11:08:03.181Z,7.55
2022-08-31T11:10:53.997Z,7.60
2022-08-31T11:13:51.353Z,7.85
2022-08-31T11:16:44.194Z,7.60
2022-08-31T11:19:38.013Z,6.88
2022-08-31T11:22:37.433Z,9.30
2022-08-31T11:25:26.444Z,5.45
2022-08-31T11:27:58.788Z,8.10
2022-08-31T11:30:32.801Z,6.85
2022-08-31T11:33:03.102Z,5.60
2022-08-31T11:35:49.333Z,7.57
2022-08-31T11:38:41.297Z,10.57
2022-08-31T11:41:13.961Z,10.23
2022-08-31T11:43:50.935Z,7.82
2022-08-31T11:46:27.206Z,10.13
2022-08-31T11:48:54.562Z,6.63
2022-08-31T11:51:42.992Z,6.05
2022-08-31T11:54:37.996Z,6.03
2022-08-31T11:57:06.290Z,6.57
2022-08-31T11:59:38.543Z,5.28
2022-08-31T12:02:20.524Z,9.15
2022-08-31T12:04:53.387Z,8.73
2022-08-31T12:07:32.504Z,7.20
2022-08-31T12:10:27.568Z,7.05
2022-08-31T12:13:02.689Z,6.53
2022-08-31T12:18:18.511Z,8.85
2022-08-31T12:21:28.656Z,7.88
2022-08-31T12:24:08.469Z,6.25
2022-08-31T12:26:48.821Z,7.55
2022-08-31T12:29:15.369Z,7.88
2022-08-31T12:31:43.860Z,7.78
2022-08-31T12:34:18.385Z,6.70
2022-08-31T12:36:45.441Z,8.82
2022-08-31T12:39:28.618Z,6.72
2022-08-31T12:41:58.703Z,6.18
2022-08-31T12:44:30.081Z,10.52
2022-08-31T12:47:24.028Z,6.07
2022-08-31T12:50:02.799Z,10.73
2022-08-31T12:52:51.199Z,8.43
2022-08-31T12:55:45.739Z,7.13
2022-08-31T12:58:24.047Z,7.13
2022-08-31T13:00:50.803Z,6.10
2022-08-31T13:03:26.931Z,9.63
2022-08-31T13:06:09.198Z,5.70
2022-08-31T13:08:39.341Z,6.22
2022-08-31T13:11:23.477Z,7.20
2022-08-31T13:13:51.900Z,7.18
2022-08-31T13:16:19.921Z,7.30
2022-08-31T13:18:46.450Z,5.88
2022-08-31T13:21:21.880Z,5.70
2022-08-31T13:23:48.630Z,7.22
2022-08-31T13:26:22.903Z,6.00
2022-08-31T13:28:52.145Z,6.95
2022-08-31T13:31:28.931Z,5.47
2022-08-31T13:34:01.736Z,8.73
2022-08-31T13:36:38.132Z,6.47
2022-08-31T13:39:28.386Z,6.68
2022-08-31T13:42:05.929Z,5.75
2022-08-31T13:44:39.874Z,6.20
2022-08-31T13:47:27.407Z,8.97
2022-08-31T13:50:15.116Z,6.22
2022-08-31T13:53:22.613Z,6.72
2022-08-31T13:55:43.567Z,5.88
2022-08-31T13:58:24.889Z,9.65
2022-08-31T14:00:55.733Z,9.32
2022-08-31T14:03:45.034Z,5.45
2022-08-31T14:06:37.983Z,6.20
2022-08-31T14:09:17.520Z,5.88
2022-08-31T14:11:53.916Z,8.48
2022-08-31T14:14:35.672Z,10.23
2022-08-31T14:17:03.266Z,5.85
2022-08-31T14:19:38.815Z,5.75
2022-08-31T14:22:35.357Z,5.43
2022-08-31T14:25:03.298Z,6.05
2022-08-31T14:27:30.632Z,6.22
2022-08-31T14:29:58.265Z,8.80
2022-08-31T14:32:25.712Z,6.78
2022-08-31T14:34:53.233Z,6.15
2022-08-31T14:37:20.225Z,7.20
2022-08-31T14:39:51.885Z,5.95
2022-08-31T14:42:24.571Z,11.52
2022-08-31T14:45:03.925Z,3.75
2022-08-31T14:47:37.900Z,4.60
2022-08-31T14:50:05.772Z,4.90
2022-08-31T14:52:52.570Z,6.13
2022-08-31T14:55:20.463Z,9.00
2022-08-31T14:57:55.487Z,4.00
2022-08-31T15:00:24.059Z,5.63
2022-08-31T15:02:54.977Z,6.30
2022-08-31T15:05:23.847Z,5.18
2022-08-31T15:07:52.852Z,4.25
2022-08-31T15:10:21.637Z,6.50
2022-08-31T15:12:50.442Z,4.90
2022-08-31T15:15:19.709Z,4.13
2022-08-31T15:17:49.061Z,4.38
2022-08-31T15:20:16.736Z,4.65
2022-08-31T15:22:43.473Z,4.03
2022-08-31T15:25:12.295Z,3.70
2022-08-31T15:27:44.019Z,6.68
2022-08-31T15:30:17.337Z,6.05
2022-08-31T15:32:45.011Z,6.45
2022-08-31T15:35:16.124Z,4.47
2022-08-31T15:37:44.710Z,4.00
2022-08-31T15:40:11.937Z,5.03
2022-08-31T15:42:42.034Z,6.30
2022-08-31T15:45:10.369Z,4.35
2022-08-31T15:47:57.692Z,8.10
2022-08-31T15:50:31.712Z,6.85
2022-08-31T15:53:08.888Z,7.45
2022-08-31T15:55:40.722Z,3.80
2022-08-31T15:58:09.348Z,8.18
2022-08-31T16:00:36.698Z,8.60
2022-08-31T16:03:03.629Z,5.40
2022-08-31T16:05:35.757Z,7.85
2022-08-31T16:08:03.096Z,6.28
2022-08-31T16:10:30.793Z,5.65
2022-08-31T16:12:57.638Z,8.05
2022-08-31T16:15:25.113Z,6.22
2022-08-31T16:17:57.655Z,4.57
2022-08-31T16:20:24.416Z,7.68
2022-08-31T16:22:52.307Z,4.22
2022-08-31T16:25:20.516Z,6.07
2022-08-31T16:27:47.461Z,4.68
2022-08-31T16:30:15.938Z,4.38
2022-08-31T16:32:42.474Z,4.28
2022-08-31T16:35:09.626Z,4.40
2022-08-31T16:37:36.368Z,6.13
2022-08-31T16:40:04.424Z,5.80
2022-08-31T16:42:31.046Z,5.40
2022-08-31T16:45:01.893Z,6.25
2022-08-31T16:47:29.386Z,14.52
2022-08-31T16:49:56.757Z,5.00
2022-08-31T16:52:27.247Z,5.10
2022-08-31T16:54:57.426Z,6.57
2022-08-31T16:57:27.419Z,5.15
2022-08-31T16:59:55.743Z,4.60
2022-08-31T17:02:23.359Z,3.92
2022-08-31T17:04:52.517Z,5.10
2022-08-31T17:07:21.050Z,3.92
2022-08-31T17:09:47.838Z,4.30
2022-08-31T17:12:17.231Z,3.85
2022-08-31T17:14:51.471Z,4.47
2022-08-31T17:17:24.114Z,4.70
2022-08-31T17:19:52.150Z,5.05
2022-08-31T17:22:26.917Z,4.93
2022-08-31T17:24:58.205Z,5.93
2022-08-31T17:27:26.945Z,4.93
2022-08-31T17:29:56.040Z,5.97
2022-08-31T17:32:25.439Z,5.05
2022-08-31T17:34:54.231Z,5.93
2022-08-31T17:37:27.659Z,5.15
2022-08-31T17:39:55.982Z,5.18
2022-08-31T17:42:26.674Z,4.68
2022-08-31T17:44:54.162Z,4.80
2022-08-31T17:47:22.247Z,5.82
2022-08-31T17:49:50.711Z,4.82
2022-08-31T17:52:20.402Z,5.53
2022-08-31T17:54:48.465Z,5.00
2022-08-31T17:57:16.612Z,5.70
2022-08-31T17:59:50.730Z,7.55
2022-08-31T18:02:25.407Z,4.13
2022-08-31T18:04:52.793Z,7.75
2022-08-31T18:07:20.272Z,4.90
2022-08-31T18:09:46.864Z,5.88
2022-08-31T18:12:15.416Z,6.82
2022-08-31T18:14:42.038Z,4.93
2022-08-31T18:17:10.897Z,8.70
2022-08-31T18:19:38.557Z,5.45
2022-08-31T18:22:06.676Z,5.07
2022-08-31T18:24:35.763Z,5.22
2022-08-31T18:27:04.450Z,7.65
2022-08-31T18:29:34.494Z,5.10
2022-08-31T18:32:05.255Z,7.18
2022-08-31T18:34:35.275Z,4.70
2022-08-31T18:37:02.289Z,6.15
2022-08-31T18:39:51.079Z,4.47
2022-08-31T18:42:36.963Z,6.75
2022-08-31T18:45:16.740Z,6.00
2022-08-31T18:47:56.902Z,6.88
2022-08-31T18:50:36.310Z,5.20
2022-08-31T18:53:07.422Z,8.27
2022-08-31T18:55:40.853Z,5.95
2022-08-31T18:58:07.597Z,5.53
2022-08-31T19:00:34.419Z,6.57
2022-08-31T19:03:02.482Z,5.95
2022-08-31T19:05:29.597Z,7.25
2022-08-31T19:07:58.113Z,5.63
2022-08-31T19:10:25.385Z,6.07
2022-08-31T19:12:55.702Z,6.07
2022-08-31T19:15:25.504Z,6.10
2022-08-31T19:18:02.565Z,5.13
2022-08-31T19:20:30.968Z,6.53
2022-08-31T19:22:57.552Z,4.78
2022-08-31T19:25:24.547Z,7.53
2022-08-31T19:27:51.902Z,5.38
2022-08-31T19:30:24.477Z,6.75
2022-08-31T19:32:54.205Z,6.05
2022-08-31T19:35:21.275Z,7.65
2022-08-31T19:37:51.954Z,6.97
2022-08-31T19:40:19.351Z,5.63
2022-08-31T19:45:43.426Z,4.35
2022-08-31T19:48:12.353Z,4.97
2022-08-31T19:50:41.886Z,5.63
2022-08-31T19:53:12.009Z,4.50
2022-08-31T19:55:50.132Z,4.05
2022-08-31T19:58:19.280Z,4.32
2022-08-31T20:00:48.030Z,5.18
2022-08-31T20:03:15.672Z,5.53
2022-08-31T20:05:43.549Z,4.30
2022-08-31T20:08:12.312Z,4.43
2022-08-31T20:10:41.070Z,10.15
2022-08-31T20:13:09.912Z,4.90
2022-08-31T20:15:44.888Z,7.20
2022-08-31T20:20:45.116Z,4.38
2022-08-31T20:23:17.130Z,6.32
2022-08-31T20:25:45.327Z,6.22
2022-08-31T20:28:12.888Z,4.15
2022-08-31T20:30:41.647Z,6.65
2022-08-31T20:33:09.595Z,4.63
2022-08-31T20:35:42.509Z,5.90
2022-08-31T20:38:14.191Z,4.18
2022-08-31T20:40:43.090Z,5.38
2022-08-31T20:43:12.576Z,3.75
2022-08-31T20:45:41.464Z,4.70
2022-08-31T20:48:27.234Z,4.22
2022-08-31T20:50:53.743Z,4.13
2022-08-31T20:53:39.072Z,5.13
2022-08-31T20:56:07.968Z,6.32
2022-08-31T20:58:36.639Z,4.47
2022-08-31T21:01:07.936Z,4.85
2022-08-31T21:03:34.732Z,4.65
2022-08-31T21:06:11.159Z,4.38
2022-08-31T21:08:39.306Z,3.80
2022-08-31T21:11:17.884Z,5.68
2022-08-31T21:13:46.418Z,4.82
2022-08-31T21:16:14.761Z,4.38
2022-08-31T21:18:41.598Z,4.45
2022-08-31T21:21:14.449Z,4.80
2022-08-31T21:23:41.240Z,4.35
2022-08-31T21:26:08.739Z,5.30
2022-08-31T21:28:38.916Z,4.53
2022-08-31T21:31:15.665Z,8.63
2022-08-31T21:33:46.210Z,5.80
2022-08-31T21:36:17.505Z,4.15
2022-08-31T21:38:44.744Z,4.00
2022-08-31T21:41:12.995Z,3.75
2022-08-31T21:43:40.090Z,4.70
2022-08-31T21:46:12.689Z,6.38
2022-08-31T21:48:41.469Z,4.63
2022-08-31T21:51:10.824Z,4.63
2022-08-31T21:53:39.021Z,3.88
2022-08-31T21:56:06.020Z,5.88
2022-08-31T21:58:32.630Z,4.80
2022-08-31T22:00:59.337Z,3.55
2022-08-31T22:03:27.217Z,3.38
2022-08-31T22:05:54.216Z,3.72
2022-08-31T22:08:26.068Z,4.78
2022-08-31T22:10:52.833Z,4.10
2022-08-31T22:13:19.696Z,4.13
2022-08-31T22:15:48.051Z,5.07
2022-08-31T22:18:59.096Z,4.78
2022-08-31T22:21:02.537Z,3.75
2022-08-31T22:23:29.525Z,6.15
2022-08-31T22:25:56.048Z,4.03
2022-08-31T22:28:24.981Z,4.18
2022-08-31T22:30:51.717Z,3.53
2022-08-31T22:33:18.230Z,5.10
2022-08-31T22:35:44.944Z,3.22
2022-08-31T22:38:14.745Z,4.35
2022-08-31T22:40:42.058Z,6.10
2022-08-31T22:43:09.384Z,4.20
2022-08-31T22:45:48.453Z,5.70
2022-08-31T22:48:15.308Z,4.80
2022-08-31T22:50:41.985Z,5.75
2022-08-31T22:53:08.468Z,4.85
2022-08-31T22:55:38.400Z,5.32
2022-08-31T22:58:05.169Z,5.38
2022-08-31T23:00:37.315Z,3.92
2022-08-31T23:03:04.308Z,4.93
2022-08-31T23:05:31.151Z,4.10
2022-08-31T23:07:57.851Z,4.38
2022-08-31T23:10:24.513Z,6.32
2022-08-31T23:12:56.007Z,5.60
2022-08-31T23:15:22.895Z,6.70
2022-08-31T23:17:51.365Z,4.85
2022-08-31T23:20:24.092Z,7.43
2022-08-31T23:22:55.086Z,3.95
2022-08-31T23:25:23.959Z,4.35
2022-08-31T23:27:51.349Z,4.85
2022-08-31T23:30:20.884Z,3.85
2022-08-31T23:32:48.569Z,4.93
2022-08-31T23:35:18.455Z,9.88
2022-08-31T23:37:45.558Z,4.15
2022-08-31T23:40:15.337Z,4.93
2022-08-31T23:42:42.250Z,3.95
2022-08-31T23:45:09.978Z,4.32
2022-08-31T23:47:38.270Z,4.65
2022-08-31T23:50:08.364Z,4.68
2022-08-31T23:52:37.676Z,5.45
2022-08-31T23:55:06.037Z,5.18
2022-08-31T23:57:33.728Z,5.43
